sensor_id;sensor_type;location;lat;lon;timestamp;P1;durP1;ratioP1;P2;durP2;ratioP2
10299;SDS011;5195;48.562;9.192;2022-10-24T00:00:43;4.47;;;2.00;;
10299;SDS011;5195;48.562;9.192;2022-10-24T00:03:18;6.78;;;2.10;;
10299;SDS011;5195;48.562;9.192;2022-10-24T00:05:54;4.70;;;1.80;;
10299;SDS011;5195;48.562;9.192;2022-10-24T00:08:30;3.80;;;1.83;;
10299;SDS011;5195;48.562;9.192;2022-10-24T00:11:15;3.70;;;2.20;;
10299;SDS011;5195;48.562;9.192;2022-10-24T00:13:48;5.82;;;2.22;;
10299;SDS011;5195;48.562;9.192;2022-10-24T00:16:26;3.57;;;1.73;;
10299;SDS011;5195;48.562;9.192;2022-10-24T00:19:01;6.13;;;2.10;;
10299;SDS011;5195;48.562;9.192;2022-10-24T00:21:36;3.70;;;1.87;;
10299;SDS011;5195;48.562;9.192;2022-10-24T00:24:13;4.47;;;2.12;;
10299;SDS011;5195;48.562;9.192;2022-10-24T00:26:50;5.87;;;2.00;;
10299;SDS011;5195;48.562;9.192;2022-10-24T00:29:25;6.37;;;2.13;;
10299;SDS011;5195;48.562;9.192;2022-10-24T00:32:00;2.47;;;1.93;;
10299;SDS011;5195;48.562;9.192;2022-10-24T00:34:36;5.70;;;2.07;;
10299;SDS011;5195;48.562;9.192;2022-10-24T00:37:12;5.53;;;2.25;;
10299;SDS011;5195;48.562;9.192;2022-10-24T00:39:47;4.90;;;2.30;;
10299;SDS011;5195;48.562;9.192;2022-10-24T00:42:23;5.53;;;1.93;;
10299;SDS011;5195;48.562;9.192;2022-10-24T00:44:59;6.13;;;2.30;;
10299;SDS011;5195;48.562;9.192;2022-10-24T00:47:35;6.43;;;1.80;;
10299;SDS011;5195;48.562;9.192;2022-10-24T00:50:12;6.57;;;2.45;;
10299;SDS011;5195;48.562;9.192;2022-10-24T00:52:47;5.80;;;1.93;;
10299;SDS011;5195;48.562;9.192;2022-10-24T00:55:22;3.90;;;1.80;;
10299;SDS011;5195;48.562;9.192;2022-10-24T00:57:58;5.47;;;2.00;;
10299;SDS011;5195;48.562;9.192;2022-10-24T01:00:34;4.80;;;2.03;;
10299;SDS011;5195;48.562;9.192;2022-10-24T01:03:10;3.80;;;1.80;;
10299;SDS011;5195;48.562;9.192;2022-10-24T01:09:08;3.60;;;1.90;;
10299;SDS011;5195;48.562;9.192;2022-10-24T01:15:14;4.27;;;1.73;;
10299;SDS011;5195;48.562;9.192;2022-10-24T01:17:54;2.20;;;1.40;;
10299;SDS011;5195;48.562;9.192;2022-10-24T01:26:03;4.43;;;1.53;;
10299;SDS011;5195;48.562;9.192;2022-10-24T01:32:03;4.53;;;2.08;;
10299;SDS011;5195;48.562;9.192;2022-10-24T01:37:34;3.30;;;1.70;;
10299;SDS011;5195;48.562;9.192;2022-10-24T01:40:11;4.83;;;1.53;;
10299;SDS011;5195;48.562;9.192;2022-10-24T01:42:44;5.03;;;1.98;;
10299;SDS011;5195;48.562;9.192;2022-10-24T01:45:21;3.73;;;2.13;;
10299;SDS011;5195;48.562;9.192;2022-10-24T01:47:55;2.78;;;1.80;;
10299;SDS011;5195;48.562;9.192;2022-10-24T01:50:30;3.73;;;1.80;;
10299;SDS011;5195;48.562;9.192;2022-10-24T01:53:06;6.40;;;1.77;;
10299;SDS011;5195;48.562;9.192;2022-10-24T01:55:41;3.90;;;2.10;;
10299;SDS011;5195;48.562;9.192;2022-10-24T01:58:18;3.17;;;1.90;;
10299;SDS011;5195;48.562;9.192;2022-10-24T02:00:54;2.53;;;1.80;;
10299;SDS011;5195;48.562;9.192;2022-10-24T02:03:31;3.43;;;1.83;;
10299;SDS011;5195;48.562;9.192;2022-10-24T02:06:07;4.15;;;1.92;;
10299;SDS011;5195;48.562;9.192;2022-10-24T02:08:42;3.73;;;1.80;;
10299;SDS011;5195;48.562;9.192;2022-10-24T02:11:17;6.40;;;2.20;;
10299;SDS011;5195;48.562;9.192;2022-10-24T02:13:55;3.33;;;1.90;;
10299;SDS011;5195;48.562;9.192;2022-10-24T02:16:28;4.27;;;1.90;;
10299;SDS011;5195;48.562;9.192;2022-10-24T02:19:04;3.83;;;2.40;;
10299;SDS011;5195;48.562;9.192;2022-10-24T02:27:05;6.07;;;2.70;;
10299;SDS011;5195;48.562;9.192;2022-10-24T02:30:00;5.73;;;1.93;;
10299;SDS011;5195;48.562;9.192;2022-10-24T02:32:39;5.87;;;3.10;;
10299;SDS011;5195;48.562;9.192;2022-10-24T02:35:15;4.90;;;2.70;;
10299;SDS011;5195;48.562;9.192;2022-10-24T02:37:52;5.63;;;2.57;;
10299;SDS011;5195;48.562;9.192;2022-10-24T02:40:27;8.80;;;2.60;;
10299;SDS011;5195;48.562;9.192;2022-10-24T02:43:04;5.90;;;2.43;;
10299;SDS011;5195;48.562;9.192;2022-10-24T02:45:39;4.33;;;2.70;;
10299;SDS011;5195;48.562;9.192;2022-10-24T02:48:15;3.00;;;1.80;;
10299;SDS011;5195;48.562;9.192;2022-10-24T02:50:50;4.87;;;2.70;;
10299;SDS011;5195;48.562;9.192;2022-10-24T02:53:27;7.05;;;2.75;;
10299;SDS011;5195;48.562;9.192;2022-10-24T02:56:02;3.47;;;2.50;;
10299;SDS011;5195;48.562;9.192;2022-10-24T02:58:39;5.50;;;2.90;;
10299;SDS011;5195;48.562;9.192;2022-10-24T03:01:15;5.97;;;2.83;;
10299;SDS011;5195;48.562;9.192;2022-10-24T03:03:51;8.13;;;2.87;;
10299;SDS011;5195;48.562;9.192;2022-10-24T03:06:26;7.50;;;2.95;;
10299;SDS011;5195;48.562;9.192;2022-10-24T03:09:02;6.77;;;2.50;;
10299;SDS011;5195;48.562;9.192;2022-10-24T03:11:37;6.67;;;2.77;;
10299;SDS011;5195;48.562;9.192;2022-10-24T03:14:15;7.07;;;2.93;;
10299;SDS011;5195;48.562;9.192;2022-10-24T03:16:51;6.60;;;2.33;;
10299;SDS011;5195;48.562;9.192;2022-10-24T03:19:26;5.13;;;2.40;;
10299;SDS011;5195;48.562;9.192;2022-10-24T03:22:02;7.10;;;2.63;;
10299;SDS011;5195;48.562;9.192;2022-10-24T03:24:38;4.47;;;2.43;;
10299;SDS011;5195;48.562;9.192;2022-10-24T03:27:14;5.93;;;2.50;;
10299;SDS011;5195;48.562;9.192;2022-10-24T03:29:50;3.97;;;2.45;;
10299;SDS011;5195;48.562;9.192;2022-10-24T03:32:27;7.03;;;2.67;;
10299;SDS011;5195;48.562;9.192;2022-10-24T03:35:03;4.07;;;2.33;;
10299;SDS011;5195;48.562;9.192;2022-10-24T03:37:40;5.67;;;2.43;;
10299;SDS011;5195;48.562;9.192;2022-10-24T03:40:15;4.63;;;2.50;;
10299;SDS011;5195;48.562;9.192;2022-10-24T03:42:52;5.57;;;3.33;;
10299;SDS011;5195;48.562;9.192;2022-10-24T03:45:28;6.72;;;3.20;;
10299;SDS011;5195;48.562;9.192;2022-10-24T03:48:04;6.77;;;2.57;;
10299;SDS011;5195;48.562;9.192;2022-10-24T03:50:39;3.77;;;2.40;;
10299;SDS011;5195;48.562;9.192;2022-10-24T03:53:15;5.12;;;2.62;;
10299;SDS011;5195;48.562;9.192;2022-10-24T03:55:51;4.97;;;2.57;;
10299;SDS011;5195;48.562;9.192;2022-10-24T03:58:26;3.80;;;2.33;;
10299;SDS011;5195;48.562;9.192;2022-10-24T04:01:03;4.27;;;2.23;;
10299;SDS011;5195;48.562;9.192;2022-10-24T04:03:39;7.37;;;3.00;;
10299;SDS011;5195;48.562;9.192;2022-10-24T04:06:14;6.43;;;2.60;;
10299;SDS011;5195;48.562;9.192;2022-10-24T04:08:51;5.40;;;2.75;;
10299;SDS011;5195;48.562;9.192;2022-10-24T04:11:27;4.07;;;2.27;;
10299;SDS011;5195;48.562;9.192;2022-10-24T04:14:02;5.20;;;2.53;;
10299;SDS011;5195;48.562;9.192;2022-10-24T04:16:39;5.03;;;2.83;;
10299;SDS011;5195;48.562;9.192;2022-10-24T04:19:15;124.25;;;71.18;;
10299;SDS011;5195;48.562;9.192;2022-10-24T04:21:50;110.80;;;55.27;;
10299;SDS011;5195;48.562;9.192;2022-10-24T04:24:26;74.73;;;37.60;;
10299;SDS011;5195;48.562;9.192;2022-10-24T04:27:01;33.77;;;19.00;;
10299;SDS011;5195;48.562;9.192;2022-10-24T04:29:37;14.82;;;7.80;;
10299;SDS011;5195;48.562;9.192;2022-10-24T04:32:13;10.77;;;6.00;;
10299;SDS011;5195;48.562;9.192;2022-10-24T04:34:48;8.47;;;4.80;;
10299;SDS011;5195;48.562;9.192;2022-10-24T04:37:24;8.32;;;4.53;;
10299;SDS011;5195;48.562;9.192;2022-10-24T04:39:59;6.10;;;4.10;;
10299;SDS011;5195;48.562;9.192;2022-10-24T04:42:35;2.97;;;2.60;;
10299;SDS011;5195;48.562;9.192;2022-10-24T04:45:11;6.25;;;3.60;;
10299;SDS011;5195;48.562;9.192;2022-10-24T04:47:46;5.70;;;3.17;;
10299;SDS011;5195;48.562;9.192;2022-10-24T04:50:22;7.13;;;2.80;;
10299;SDS011;5195;48.562;9.192;2022-10-24T04:52:57;4.80;;;2.87;;
10299;SDS011;5195;48.562;9.192;2022-10-24T04:55:33;4.63;;;2.83;;
10299;SDS011;5195;48.562;9.192;2022-10-24T04:58:09;6.10;;;3.15;;
10299;SDS011;5195;48.562;9.192;2022-10-24T05:00:44;5.53;;;2.70;;
10299;SDS011;5195;48.562;9.192;2022-10-24T05:03:20;8.10;;;3.20;;
10299;SDS011;5195;48.562;9.192;2022-10-24T05:05:56;3.93;;;2.70;;
10299;SDS011;5195;48.562;9.192;2022-10-24T05:08:32;8.17;;;3.47;;
10299;SDS011;5195;48.562;9.192;2022-10-24T05:11:07;5.72;;;3.05;;
10299;SDS011;5195;48.562;9.192;2022-10-24T05:13:43;6.37;;;2.80;;
10299;SDS011;5195;48.562;9.192;2022-10-24T05:16:18;6.83;;;2.70;;
10299;SDS011;5195;48.562;9.192;2022-10-24T05:18:55;3.90;;;2.30;;
10299;SDS011;5195;48.562;9.192;2022-10-24T05:21:31;6.65;;;2.80;;
10299;SDS011;5195;48.562;9.192;2022-10-24T05:24:06;6.73;;;2.53;;
10299;SDS011;5195;48.562;9.192;2022-10-24T05:26:42;5.53;;;2.80;;
10299;SDS011;5195;48.562;9.192;2022-10-24T05:29:19;6.13;;;2.77;;
10299;SDS011;5195;48.562;9.192;2022-10-24T05:31:54;6.68;;;2.70;;
10299;SDS011;5195;48.562;9.192;2022-10-24T05:34:30;4.03;;;2.13;;
10299;SDS011;5195;48.562;9.192;2022-10-24T05:37:06;4.70;;;2.40;;
10299;SDS011;5195;48.562;9.192;2022-10-24T05:39:42;5.12;;;2.35;;
10299;SDS011;5195;48.562;9.192;2022-10-24T05:42:18;4.07;;;2.13;;
10299;SDS011;5195;48.562;9.192;2022-10-24T05:44:54;3.80;;;2.00;;
10299;SDS011;5195;48.562;9.192;2022-10-24T05:47:30;4.77;;;2.10;;
10299;SDS011;5195;48.562;9.192;2022-10-24T05:50:06;3.10;;;2.08;;
10299;SDS011;5195;48.562;9.192;2022-10-24T05:52:42;6.28;;;2.50;;
10299;SDS011;5195;48.562;9.192;2022-10-24T05:55:17;2.87;;;1.80;;
10299;SDS011;5195;48.562;9.192;2022-10-24T05:57:54;3.20;;;1.90;;
10299;SDS011;5195;48.562;9.192;2022-10-24T06:00:29;4.10;;;2.33;;
10299;SDS011;5195;48.562;9.192;2022-10-24T06:03:05;2.83;;;2.20;;
10299;SDS011;5195;48.562;9.192;2022-10-24T06:05:42;11.00;;;9.20;;
10299;SDS011;5195;48.562;9.192;2022-10-24T06:08:19;5.50;;;2.00;;
10299;SDS011;5195;48.562;9.192;2022-10-24T06:10:55;3.87;;;2.20;;
10299;SDS011;5195;48.562;9.192;2022-10-24T06:13:30;5.10;;;2.10;;
10299;SDS011;5195;48.562;9.192;2022-10-24T06:16:06;3.83;;;2.00;;
10299;SDS011;5195;48.562;9.192;2022-10-24T06:18:41;5.40;;;2.35;;
10299;SDS011;5195;48.562;9.192;2022-10-24T06:21:17;4.17;;;2.30;;
10299;SDS011;5195;48.562;9.192;2022-10-24T06:23:54;4.03;;;2.33;;
10299;SDS011;5195;48.562;9.192;2022-10-24T06:26:30;3.70;;;2.30;;
10299;SDS011;5195;48.562;9.192;2022-10-24T06:29:06;2.53;;;1.90;;
10299;SDS011;5195;48.562;9.192;2022-10-24T06:31:41;4.35;;;2.40;;
10299;SDS011;5195;48.562;9.192;2022-10-24T06:34:17;4.60;;;2.00;;
10299;SDS011;5195;48.562;9.192;2022-10-24T06:36:52;4.07;;;2.37;;
10299;SDS011;5195;48.562;9.192;2022-10-24T06:39:30;4.13;;;2.40;;
10299;SDS011;5195;48.562;9.192;2022-10-24T06:42:06;5.47;;;2.50;;
10299;SDS011;5195;48.562;9.192;2022-10-24T06:44:41;5.00;;;2.40;;
10299;SDS011;5195;48.562;9.192;2022-10-24T06:47:17;4.67;;;2.40;;
10299;SDS011;5195;48.562;9.192;2022-10-24T06:49:52;6.62;;;2.58;;
10299;SDS011;5195;48.562;9.192;2022-10-24T06:52:28;4.37;;;2.50;;
10299;SDS011;5195;48.562;9.192;2022-10-24T06:55:04;5.33;;;2.03;;
10299;SDS011;5195;48.562;9.192;2022-10-24T06:57:42;3.93;;;2.03;;
10299;SDS011;5195;48.562;9.192;2022-10-24T07:00:17;5.03;;;2.53;;
10299;SDS011;5195;48.562;9.192;2022-10-24T07:02:53;4.10;;;2.33;;
10299;SDS011;5195;48.562;9.192;2022-10-24T07:05:29;5.77;;;2.30;;
10299;SDS011;5195;48.562;9.192;2022-10-24T07:08:05;11.90;;;10.43;;
10299;SDS011;5195;48.562;9.192;2022-10-24T07:10:40;4.23;;;2.53;;
10299;SDS011;5195;48.562;9.192;2022-10-24T07:13:18;8.13;;;2.47;;
10299;SDS011;5195;48.562;9.192;2022-10-24T07:15:54;7.43;;;5.17;;
10299;SDS011;5195;48.562;9.192;2022-10-24T07:18:29;4.13;;;2.17;;
10299;SDS011;5195;48.562;9.192;2022-10-24T07:21:07;4.60;;;2.70;;
10299;SDS011;5195;48.562;9.192;2022-10-24T07:23:42;4.90;;;2.30;;
10299;SDS011;5195;48.562;9.192;2022-10-24T07:26:19;4.93;;;2.60;;
10299;SDS011;5195;48.562;9.192;2022-10-24T07:28:54;4.03;;;2.50;;
10299;SDS011;5195;48.562;9.192;2022-10-24T07:31:31;4.27;;;2.40;;
10299;SDS011;5195;48.562;9.192;2022-10-24T07:34:06;4.60;;;2.37;;
10299;SDS011;5195;48.562;9.192;2022-10-24T07:36:41;4.65;;;3.50;;
10299;SDS011;5195;48.562;9.192;2022-10-24T07:39:17;7.23;;;2.70;;
10299;SDS011;5195;48.562;9.192;2022-10-24T07:41:53;6.00;;;2.83;;
10299;SDS011;5195;48.562;9.192;2022-10-24T07:44:29;5.33;;;2.80;;
10299;SDS011;5195;48.562;9.192;2022-10-24T07:47:05;9.80;;;3.90;;
10299;SDS011;5195;48.562;9.192;2022-10-24T07:49:42;7.27;;;3.40;;
10299;SDS011;5195;48.562;9.192;2022-10-24T07:52:17;9.43;;;3.53;;
10299;SDS011;5195;48.562;9.192;2022-10-24T07:54:53;9.13;;;4.70;;
10299;SDS011;5195;48.562;9.192;2022-10-24T07:57:29;8.93;;;6.90;;
10299;SDS011;5195;48.562;9.192;2022-10-24T08:00:04;9.00;;;6.50;;
10299;SDS011;5195;48.562;9.192;2022-10-24T08:02:40;5.43;;;4.10;;
10299;SDS011;5195;48.562;9.192;2022-10-24T08:05:16;8.33;;;5.10;;
10299;SDS011;5195;48.562;9.192;2022-10-24T08:07:52;22.00;;;17.27;;
10299;SDS011;5195;48.562;9.192;2022-10-24T08:10:28;10.00;;;4.43;;
10299;SDS011;5195;48.562;9.192;2022-10-24T08:13:03;5.50;;;4.78;;
10299;SDS011;5195;48.562;9.192;2022-10-24T08:15:39;7.17;;;3.80;;
10299;SDS011;5195;48.562;9.192;2022-10-24T08:18:15;5.90;;;4.57;;
10299;SDS011;5195;48.562;9.192;2022-10-24T08:20:58;9.40;;;4.40;;
10299;SDS011;5195;48.562;9.192;2022-10-24T08:23:36;4.25;;;2.87;;
10299;SDS011;5195;48.562;9.192;2022-10-24T08:26:11;7.00;;;3.10;;
10299;SDS011;5195;48.562;9.192;2022-10-24T08:28:45;5.40;;;3.30;;
10299;SDS011;5195;48.562;9.192;2022-10-24T08:31:21;7.20;;;3.22;;
10299;SDS011;5195;48.562;9.192;2022-10-24T08:33:56;10.17;;;3.70;;
10299;SDS011;5195;48.562;9.192;2022-10-24T08:36:33;6.87;;;4.00;;
10299;SDS011;5195;48.562;9.192;2022-10-24T08:39:08;5.77;;;3.40;;
10299;SDS011;5195;48.562;9.192;2022-10-24T08:41:45;4.60;;;2.97;;
10299;SDS011;5195;48.562;9.192;2022-10-24T08:44:34;7.60;;;3.03;;
10299;SDS011;5195;48.562;9.192;2022-10-24T08:50:30;6.77;;;2.50;;
10299;SDS011;5195;48.562;9.192;2022-10-24T08:53:11;5.73;;;3.10;;
10299;SDS011;5195;48.562;9.192;2022-10-24T08:55:52;5.43;;;4.10;;
10299;SDS011;5195;48.562;9.192;2022-10-24T08:58:32;7.77;;;5.60;;
10299;SDS011;5195;48.562;9.192;2022-10-24T09:01:07;5.87;;;5.10;;
10299;SDS011;5195;48.562;9.192;2022-10-24T09:03:42;4.82;;;3.00;;
10299;SDS011;5195;48.562;9.192;2022-10-24T09:06:18;5.63;;;2.70;;
10299;SDS011;5195;48.562;9.192;2022-10-24T09:08:54;7.80;;;5.22;;
10299;SDS011;5195;48.562;9.192;2022-10-24T09:14:21;5.87;;;3.30;;
10299;SDS011;5195;48.562;9.192;2022-10-24T09:17:10;4.03;;;3.00;;
10299;SDS011;5195;48.562;9.192;2022-10-24T09:19:50;4.67;;;2.50;;
10299;SDS011;5195;48.562;9.192;2022-10-24T09:22:31;4.90;;;2.33;;
10299;SDS011;5195;48.562;9.192;2022-10-24T09:25:07;4.65;;;2.60;;
10299;SDS011;5195;48.562;9.192;2022-10-24T09:27:41;4.37;;;2.53;;
10299;SDS011;5195;48.562;9.192;2022-10-24T09:30:19;4.47;;;2.70;;
10299;SDS011;5195;48.562;9.192;2022-10-24T09:32:54;3.77;;;2.60;;
10299;SDS011;5195;48.562;9.192;2022-10-24T09:35:30;3.78;;;2.70;;
10299;SDS011;5195;48.562;9.192;2022-10-24T09:41:05;6.22;;;2.60;;
10299;SDS011;5195;48.562;9.192;2022-10-24T09:46:23;6.87;;;2.60;;
10299;SDS011;5195;48.562;9.192;2022-10-24T09:52:06;5.07;;;3.70;;
10299;SDS011;5195;48.562;9.192;2022-10-24T09:54:44;6.27;;;5.60;;
10299;SDS011;5195;48.562;9.192;2022-10-24T09:57:20;4.13;;;3.53;;
10299;SDS011;5195;48.562;9.192;2022-10-24T09:59:59;4.40;;;1.93;;
10299;SDS011;5195;48.562;9.192;2022-10-24T10:02:35;4.67;;;2.30;;
10299;SDS011;5195;48.562;9.192;2022-10-24T10:05:15;4.43;;;2.17;;
10299;SDS011;5195;48.562;9.192;2022-10-24T10:07:50;4.90;;;2.20;;
10299;SDS011;5195;48.562;9.192;2022-10-24T10:10:31;3.90;;;2.20;;
10299;SDS011;5195;48.562;9.192;2022-10-24T10:13:19;6.50;;;2.70;;
10299;SDS011;5195;48.562;9.192;2022-10-24T10:15:58;3.10;;;2.17;;
10299;SDS011;5195;48.562;9.192;2022-10-24T10:21:17;5.40;;;2.50;;
10299;SDS011;5195;48.562;9.192;2022-10-24T10:23:52;2.60;;;2.10;;
10299;SDS011;5195;48.562;9.192;2022-10-24T10:26:27;3.33;;;2.10;;
10299;SDS011;5195;48.562;9.192;2022-10-24T10:34:51;3.00;;;2.00;;
10299;SDS011;5195;48.562;9.192;2022-10-24T10:37:28;5.67;;;2.03;;
10299;SDS011;5195;48.562;9.192;2022-10-24T10:40:22;5.07;;;2.70;;
10299;SDS011;5195;48.562;9.192;2022-10-24T10:43:02;6.07;;;3.97;;
10299;SDS011;5195;48.562;9.192;2022-10-24T10:45:45;2.47;;;2.25;;
10299;SDS011;5195;48.562;9.192;2022-10-24T10:54:10;3.07;;;1.83;;
10299;SDS011;5195;48.562;9.192;2022-10-24T10:56:58;8.53;;;7.53;;
10299;SDS011;5195;48.562;9.192;2022-10-24T11:02:24;5.00;;;1.90;;
10299;SDS011;5195;48.562;9.192;2022-10-24T11:10:54;5.57;;;3.60;;
10299;SDS011;5195;48.562;9.192;2022-10-24T11:13:30;3.58;;;2.10;;
10299;SDS011;5195;48.562;9.192;2022-10-24T11:16:05;2.00;;;1.80;;
10299;SDS011;5195;48.562;9.192;2022-10-24T11:18:41;3.37;;;1.70;;
10299;SDS011;5195;48.562;9.192;2022-10-24T11:21:16;2.80;;;1.40;;
10299;SDS011;5195;48.562;9.192;2022-10-24T11:23:53;2.55;;;1.98;;
10299;SDS011;5195;48.562;9.192;2022-10-24T11:26:32;2.97;;;1.60;;
10299;SDS011;5195;48.562;9.192;2022-10-24T11:29:54;2.10;;;1.63;;
10299;SDS011;5195;48.562;9.192;2022-10-24T11:31:58;3.05;;;1.75;;
10299;SDS011;5195;48.562;9.192;2022-10-24T11:34:39;2.87;;;1.60;;
10299;SDS011;5195;48.562;9.192;2022-10-24T11:40:18;3.00;;;1.80;;
10299;SDS011;5195;48.562;9.192;2022-10-24T11:49:13;4.32;;;1.40;;
10299;SDS011;5195;48.562;9.192;2022-10-24T11:52:09;2.40;;;1.50;;
10299;SDS011;5195;48.562;9.192;2022-10-24T11:54:40;1.57;;;1.10;;
10299;SDS011;5195;48.562;9.192;2022-10-24T11:57:25;1.80;;;1.43;;
10299;SDS011;5195;48.562;9.192;2022-10-24T12:00:00;6.22;;;1.67;;
10299;SDS011;5195;48.562;9.192;2022-10-24T12:05:57;4.40;;;1.20;;
10299;SDS011;5195;48.562;9.192;2022-10-24T12:08:48;2.87;;;1.58;;
10299;SDS011;5195;48.562;9.192;2022-10-24T12:11:37;2.53;;;1.40;;
10299;SDS011;5195;48.562;9.192;2022-10-24T12:20:05;1.23;;;1.13;;
10299;SDS011;5195;48.562;9.192;2022-10-24T12:22:41;2.33;;;1.33;;
10299;SDS011;5195;48.562;9.192;2022-10-24T12:25:18;2.20;;;1.40;;
10299;SDS011;5195;48.562;9.192;2022-10-24T12:28:21;7.07;;;1.70;;
10299;SDS011;5195;48.562;9.192;2022-10-24T12:31:07;2.13;;;1.53;;
10299;SDS011;5195;48.562;9.192;2022-10-24T12:33:45;5.13;;;1.30;;
10299;SDS011;5195;48.562;9.192;2022-10-24T12:36:54;3.07;;;1.20;;
10299;SDS011;5195;48.562;9.192;2022-10-24T12:41:34;2.70;;;1.17;;
10299;SDS011;5195;48.562;9.192;2022-10-24T12:44:24;1.70;;;1.30;;
10299;SDS011;5195;48.562;9.192;2022-10-24T12:46:59;3.97;;;1.10;;
10299;SDS011;5195;48.562;9.192;2022-10-24T12:49:34;1.53;;;1.10;;
10299;SDS011;5195;48.562;9.192;2022-10-24T12:55:24;3.83;;;1.35;;
10299;SDS011;5195;48.562;9.192;2022-10-24T12:57:41;1.00;;;1.00;;
10299;SDS011;5195;48.562;9.192;2022-10-24T13:00:22;1.67;;;1.10;;
10299;SDS011;5195;48.562;9.192;2022-10-24T13:05:56;2.20;;;1.00;;
10299;SDS011;5195;48.562;9.192;2022-10-24T13:14:47;1.23;;;1.07;;
10299;SDS011;5195;48.562;9.192;2022-10-24T13:17:57;1.60;;;0.90;;
10299;SDS011;5195;48.562;9.192;2022-10-24T13:20:39;1.17;;;0.97;;
10299;SDS011;5195;48.562;9.192;2022-10-24T13:23:25;2.03;;;1.30;;
10299;SDS011;5195;48.562;9.192;2022-10-24T13:25:59;1.23;;;1.10;;
10299;SDS011;5195;48.562;9.192;2022-10-24T13:28:36;4.57;;;1.27;;
10299;SDS011;5195;48.562;9.192;2022-10-24T13:33:50;2.62;;;1.10;;
10299;SDS011;5195;48.562;9.192;2022-10-24T13:36:25;2.40;;;1.10;;
10299;SDS011;5195;48.562;9.192;2022-10-24T13:39:02;1.33;;;1.00;;
10299;SDS011;5195;48.562;9.192;2022-10-24T13:41:43;1.63;;;0.97;;
10299;SDS011;5195;48.562;9.192;2022-10-24T13:47:13;1.13;;;1.00;;
10299;SDS011;5195;48.562;9.192;2022-10-24T13:52:46;2.03;;;1.20;;
10299;SDS011;5195;48.562;9.192;2022-10-24T13:55:42;5.10;;;1.03;;
10299;SDS011;5195;48.562;9.192;2022-10-24T13:58:08;1.37;;;1.20;;
10299;SDS011;5195;48.562;9.192;2022-10-24T14:00:45;1.83;;;1.05;;
10299;SDS011;5195;48.562;9.192;2022-10-24T14:03:21;1.33;;;1.17;;
10299;SDS011;5195;48.562;9.192;2022-10-24T14:08:35;1.03;;;0.93;;
10299;SDS011;5195;48.562;9.192;2022-10-24T14:11:14;1.57;;;1.17;;
10299;SDS011;5195;48.562;9.192;2022-10-24T14:13:50;1.20;;;1.10;;
10299;SDS011;5195;48.562;9.192;2022-10-24T14:16:24;2.17;;;1.30;;
10299;SDS011;5195;48.562;9.192;2022-10-24T14:21:58;1.63;;;1.20;;
10299;SDS011;5195;48.562;9.192;2022-10-24T14:24:34;2.60;;;1.07;;
10299;SDS011;5195;48.562;9.192;2022-10-24T14:27:10;3.73;;;1.60;;
10299;SDS011;5195;48.562;9.192;2022-10-24T14:29:49;1.90;;;1.10;;
10299;SDS011;5195;48.562;9.192;2022-10-24T14:32:29;2.00;;;1.53;;
10299;SDS011;5195;48.562;9.192;2022-10-24T14:35:04;2.00;;;1.50;;
10299;SDS011;5195;48.562;9.192;2022-10-24T14:37:41;3.60;;;1.92;;
10299;SDS011;5195;48.562;9.192;2022-10-24T14:40:17;2.10;;;1.20;;
10299;SDS011;5195;48.562;9.192;2022-10-24T14:42:52;5.40;;;1.70;;
10299;SDS011;5195;48.562;9.192;2022-10-24T14:45:28;1.67;;;1.50;;
10299;SDS011;5195;48.562;9.192;2022-10-24T14:48:03;6.10;;;1.60;;
10299;SDS011;5195;48.562;9.192;2022-10-24T14:50:42;2.60;;;1.23;;
10299;SDS011;5195;48.562;9.192;2022-10-24T14:53:25;1.90;;;1.23;;
10299;SDS011;5195;48.562;9.192;2022-10-24T14:56:01;1.37;;;1.27;;
10299;SDS011;5195;48.562;9.192;2022-10-24T14:58:36;4.23;;;1.50;;
10299;SDS011;5195;48.562;9.192;2022-10-24T15:01:19;1.43;;;1.20;;
10299;SDS011;5195;48.562;9.192;2022-10-24T15:03:57;3.17;;;1.40;;
10299;SDS011;5195;48.562;9.192;2022-10-24T15:06:41;1.93;;;1.47;;
10299;SDS011;5195;48.562;9.192;2022-10-24T15:09:16;1.95;;;1.70;;
10299;SDS011;5195;48.562;9.192;2022-10-24T15:11:59;2.83;;;1.80;;
10299;SDS011;5195;48.562;9.192;2022-10-24T15:19:56;1.90;;;1.50;;
10299;SDS011;5195;48.562;9.192;2022-10-24T15:22:34;2.03;;;1.50;;
10299;SDS011;5195;48.562;9.192;2022-10-24T15:25:20;2.97;;;2.78;;
10299;SDS011;5195;48.562;9.192;2022-10-24T15:27:52;1.90;;;1.80;;
10299;SDS011;5195;48.562;9.192;2022-10-24T15:30:29;3.40;;;1.70;;
10299;SDS011;5195;48.562;9.192;2022-10-24T15:33:04;2.13;;;1.90;;
10299;SDS011;5195;48.562;9.192;2022-10-24T15:35:40;2.23;;;1.70;;
10299;SDS011;5195;48.562;9.192;2022-10-24T15:38:16;2.55;;;1.58;;
10299;SDS011;5195;48.562;9.192;2022-10-24T15:40:53;2.35;;;1.80;;
10299;SDS011;5195;48.562;9.192;2022-10-24T15:43:29;5.20;;;1.80;;
10299;SDS011;5195;48.562;9.192;2022-10-24T15:46:06;2.50;;;1.83;;
10299;SDS011;5195;48.562;9.192;2022-10-24T15:48:41;1.77;;;1.27;;
10299;SDS011;5195;48.562;9.192;2022-10-24T15:51:19;2.65;;;1.80;;
10299;SDS011;5195;48.562;9.192;2022-10-24T15:53:53;2.73;;;1.63;;
10299;SDS011;5195;48.562;9.192;2022-10-24T15:56:29;2.30;;;1.53;;
10299;SDS011;5195;48.562;9.192;2022-10-24T15:59:05;1.83;;;1.63;;
10299;SDS011;5195;48.562;9.192;2022-10-24T16:01:41;2.40;;;1.60;;
10299;SDS011;5195;48.562;9.192;2022-10-24T16:04:16;1.93;;;1.57;;
10299;SDS011;5195;48.562;9.192;2022-10-24T16:06:51;1.87;;;1.77;;
10299;SDS011;5195;48.562;9.192;2022-10-24T16:09:28;2.23;;;2.03;;
10299;SDS011;5195;48.562;9.192;2022-10-24T16:12:03;1.60;;;1.50;;
10299;SDS011;5195;48.562;9.192;2022-10-24T16:14:39;2.10;;;1.90;;
10299;SDS011;5195;48.562;9.192;2022-10-24T16:17:15;3.55;;;2.10;;
10299;SDS011;5195;48.562;9.192;2022-10-24T16:19:51;3.22;;;2.00;;
10299;SDS011;5195;48.562;9.192;2022-10-24T16:22:26;2.33;;;1.70;;
10299;SDS011;5195;48.562;9.192;2022-10-24T16:25:03;3.37;;;1.93;;
10299;SDS011;5195;48.562;9.192;2022-10-24T16:27:38;3.03;;;1.63;;
10299;SDS011;5195;48.562;9.192;2022-10-24T16:30:15;39.47;;;35.28;;
10299;SDS011;5195;48.562;9.192;2022-10-24T16:32:50;11.30;;;10.27;;
10299;SDS011;5195;48.562;9.192;2022-10-24T16:35:26;7.67;;;6.97;;
10299;SDS011;5195;48.562;9.192;2022-10-24T16:38:01;10.90;;;9.80;;
10299;SDS011;5195;48.562;9.192;2022-10-24T16:40:39;4.30;;;3.80;;
10299;SDS011;5195;48.562;9.192;2022-10-24T16:43:15;4.07;;;3.60;;
10299;SDS011;5195;48.562;9.192;2022-10-24T16:46:00;3.43;;;1.97;;
10299;SDS011;5195;48.562;9.192;2022-10-24T16:48:35;2.20;;;2.10;;
10299;SDS011;5195;48.562;9.192;2022-10-24T16:51:15;3.13;;;2.20;;
10299;SDS011;5195;48.562;9.192;2022-10-24T16:53:50;2.13;;;2.03;;
10299;SDS011;5195;48.562;9.192;2022-10-24T16:56:26;2.33;;;1.70;;
10299;SDS011;5195;48.562;9.192;2022-10-24T16:59:01;4.10;;;2.45;;
10299;SDS011;5195;48.562;9.192;2022-10-24T17:01:37;4.07;;;3.77;;
10299;SDS011;5195;48.562;9.192;2022-10-24T17:04:13;3.93;;;3.20;;
10299;SDS011;5195;48.562;9.192;2022-10-24T17:06:49;3.12;;;2.60;;
10299;SDS011;5195;48.562;9.192;2022-10-24T17:09:24;4.73;;;3.17;;
10299;SDS011;5195;48.562;9.192;2022-10-24T17:12:00;2.97;;;2.67;;
10299;SDS011;5195;48.562;9.192;2022-10-24T17:14:36;2.47;;;2.27;;
10299;SDS011;5195;48.562;9.192;2022-10-24T17:17:17;3.00;;;2.40;;
10299;SDS011;5195;48.562;9.192;2022-10-24T17:19:52;4.37;;;2.60;;
10299;SDS011;5195;48.562;9.192;2022-10-24T17:22:28;3.00;;;2.50;;
10299;SDS011;5195;48.562;9.192;2022-10-24T17:25:04;2.53;;;2.33;;
10299;SDS011;5195;48.562;9.192;2022-10-24T17:27:39;3.72;;;2.70;;
10299;SDS011;5195;48.562;9.192;2022-10-24T17:30:23;2.97;;;2.77;;
10299;SDS011;5195;48.562;9.192;2022-10-24T17:32:57;3.37;;;3.17;;
10299;SDS011;5195;48.562;9.192;2022-10-24T17:35:33;8.10;;;7.40;;
10299;SDS011;5195;48.562;9.192;2022-10-24T17:40:48;8.43;;;4.73;;
10299;SDS011;5195;48.562;9.192;2022-10-24T17:43:25;4.07;;;3.70;;
10299;SDS011;5195;48.562;9.192;2022-10-24T17:46:00;3.53;;;3.10;;
10299;SDS011;5195;48.562;9.192;2022-10-24T17:48:37;3.33;;;3.00;;
10299;SDS011;5195;48.562;9.192;2022-10-24T17:51:19;2.87;;;2.47;;
10299;SDS011;5195;48.562;9.192;2022-10-24T17:53:48;3.93;;;2.50;;
10299;SDS011;5195;48.562;9.192;2022-10-24T17:56:24;4.63;;;2.60;;